createdAt,value
2018-12-02T00:00:47.311Z,1.10
2018-12-02T00:03:16.181Z,1.50
2018-12-02T00:05:44.967Z,1.40
2018-12-02T00:08:34.543Z,1.17
2018-12-02T00:11:03.330Z,1.20
2018-12-02T00:13:32.137Z,1.27
2018-12-02T00:16:00.986Z,1.07
2018-12-02T00:18:29.840Z,1.50
2018-12-02T00:20:58.679Z,1.40
2018-12-02T00:23:27.488Z,0.93
2018-12-02T00:25:56.322Z,1.30
2018-12-02T00:28:25.122Z,1.50
2018-12-02T00:30:54.979Z,1.70
2018-12-02T00:33:23.776Z,1.63
2018-12-02T00:35:52.662Z,1.40
2018-12-02T00:38:21.740Z,1.40
2018-12-02T00:40:50.575Z,1.60
2018-12-02T00:43:19.370Z,1.60
2018-12-02T00:45:48.226Z,1.60
2018-12-02T00:48:17.410Z,1.57
2018-12-02T00:50:46.231Z,1.10
2018-12-02T00:53:15.020Z,1.50
2018-12-02T00:55:44.312Z,1.40
2018-12-02T00:58:13.150Z,1.80
2018-12-02T01:00:41.963Z,1.50
2018-12-02T01:03:10.964Z,2.03
2018-12-02T01:05:39.785Z,1.60
2018-12-02T01:08:08.673Z,1.60
2018-12-02T01:10:37.872Z,1.50
2018-12-02T01:13:08.710Z,1.40
2018-12-02T01:15:38.243Z,1.17
2018-12-02T01:18:07.130Z,1.30
2018-12-02T01:20:36.627Z,1.30
2018-12-02T01:23:06.198Z,0.93
2018-12-02T01:25:35.945Z,1.43
2018-12-02T01:28:04.771Z,1.17
2018-12-02T01:30:33.574Z,1.60
2018-12-02T01:33:02.424Z,1.03
2018-12-02T01:35:35.204Z,1.40
2018-12-02T01:38:04.033Z,1.80
2018-12-02T01:40:32.857Z,1.30
2018-12-02T01:43:01.770Z,1.07
2018-12-02T01:45:30.668Z,1.13
2018-12-02T01:48:00.484Z,1.43
2018-12-02T01:50:29.913Z,1.30
2018-12-02T01:52:58.726Z,1.10
2018-12-02T01:55:27.520Z,1.17
2018-12-02T01:57:56.296Z,1.30
2018-12-02T02:00:26.436Z,1.40
2018-12-02T02:02:56.151Z,1.53
2018-12-02T02:05:26.316Z,1.30
2018-12-02T02:07:55.115Z,1.23
2018-12-02T02:10:25.934Z,1.30
2018-12-02T02:12:54.749Z,1.30
2018-12-02T02:15:23.798Z,1.03
2018-12-02T02:17:52.622Z,1.00
2018-12-02T02:20:23.420Z,1.10
2018-12-02T02:22:52.331Z,1.10
2018-12-02T02:25:22.917Z,1.20
2018-12-02T02:27:56.959Z,1.20
2018-12-02T02:30:28.682Z,1.63
2018-12-02T02:32:57.595Z,1.13
2018-12-02T02:35:26.420Z,1.30
2018-12-02T02:37:56.385Z,1.33
2018-12-02T02:40:28.356Z,1.30
2018-12-02T02:42:57.264Z,1.10
2018-12-02T02:45:26.102Z,1.00
2018-12-02T02:47:54.943Z,1.93
2018-12-02T02:50:24.713Z,1.30
2018-12-02T02:52:56.567Z,1.20
2018-12-02T02:55:25.377Z,1.10
2018-12-02T02:57:54.217Z,1.50
2018-12-02T03:00:24.976Z,1.20
2018-12-02T03:02:53.855Z,1.50
2018-12-02T03:05:22.688Z,1.30
2018-12-02T03:07:51.484Z,1.20
2018-12-02T03:10:21.055Z,1.40
2018-12-02T03:12:50.950Z,1.13
2018-12-02T03:15:20.414Z,1.13
2018-12-02T03:17:49.211Z,1.20
2018-12-02T03:20:18.796Z,1.07
2018-12-02T03:22:49.608Z,0.97
2018-12-02T03:25:19.420Z,0.97
2018-12-02T03:27:48.963Z,1.13
2018-12-02T03:30:19.701Z,1.30
2018-12-02T03:32:48.698Z,1.37
2018-12-02T03:35:18.480Z,0.87
2018-12-02T03:37:47.325Z,1.10
2018-12-02T03:40:23.080Z,1.50
2018-12-02T03:42:52.317Z,1.20
2018-12-02T03:45:23.071Z,0.97
2018-12-02T03:47:51.893Z,0.90
2018-12-02T03:50:21.790Z,1.20
2018-12-02T03:52:50.930Z,1.10
2018-12-02T03:55:19.775Z,0.97
2018-12-02T03:57:48.638Z,1.17
2018-12-02T04:00:21.678Z,0.90
2018-12-02T04:02:50.930Z,1.00
2018-12-02T04:05:23.825Z,1.00
2018-12-02T04:07:53.004Z,1.33
2018-12-02T04:10:22.102Z,0.80
2018-12-02T04:12:51.709Z,0.90
2018-12-02T04:15:21.444Z,1.00
2018-12-02T04:17:50.266Z,0.97
2018-12-02T04:20:19.768Z,1.20
2018-12-02T04:22:51.545Z,1.17
2018-12-02T04:25:22.640Z,1.17
2018-12-02T04:27:51.480Z,0.83
2018-12-02T04:30:20.993Z,1.00
2018-12-02T04:32:52.468Z,1.17
2018-12-02T04:35:23.124Z,1.63
2018-12-02T04:37:51.955Z,1.20
2018-12-02T04:40:20.798Z,1.30
2018-12-02T04:42:49.646Z,1.10
2018-12-02T04:45:19.254Z,1.37
2018-12-02T04:47:48.248Z,1.40
2018-12-02T04:50:20.170Z,1.43
2018-12-02T04:52:49.058Z,1.60
2018-12-02T04:55:17.909Z,1.43
2018-12-02T04:57:46.754Z,1.50
2018-12-02T05:00:18.418Z,1.80
2018-12-02T05:02:49.205Z,1.70
2018-12-02T05:05:21.163Z,1.87
2018-12-02T05:07:50.020Z,2.10
2018-12-02T05:10:19.558Z,1.97
2018-12-02T05:12:48.554Z,2.20
2018-12-02T05:15:19.165Z,2.10
2018-12-02T05:17:48.032Z,2.13
2018-12-02T05:20:19.624Z,2.20
2018-12-02T05:22:48.562Z,2.47
2018-12-02T05:25:18.648Z,2.30
2018-12-02T05:27:46.767Z,2.57
2018-12-02T05:30:18.587Z,2.23
2018-12-02T05:32:48.388Z,2.20
2018-12-02T05:35:17.280Z,2.23
2018-12-02T05:37:46.170Z,2.00
2018-12-02T05:40:20.823Z,2.60
2018-12-02T05:42:49.690Z,2.30
2018-12-02T05:45:18.895Z,2.13
2018-12-02T05:47:47.766Z,2.70
2018-12-02T05:50:19.810Z,2.37
2018-12-02T05:52:50.724Z,2.20
2018-12-02T05:55:24.636Z,2.27
2018-12-02T05:57:53.489Z,2.00
2018-12-02T06:00:22.650Z,2.50
2018-12-02T06:02:51.435Z,2.50
2018-12-02T06:05:20.309Z,2.67
2018-12-02T06:07:49.189Z,2.40
2018-12-02T06:10:19.054Z,2.53
2018-12-02T06:12:47.943Z,2.60
2018-12-02T06:15:20.377Z,2.37
2018-12-02T06:17:49.292Z,2.67
2018-12-02T06:20:20.024Z,3.27
2018-12-02T06:22:49.316Z,2.70
2018-12-02T06:25:18.486Z,2.80
2018-12-02T06:27:47.410Z,2.67
2018-12-02T06:30:31.759Z,2.57
2018-12-02T06:33:02.896Z,2.50
2018-12-02T06:35:31.827Z,2.40
2018-12-02T06:38:02.023Z,1.87
2018-12-02T06:40:32.468Z,2.33
2018-12-02T06:43:01.410Z,2.17
2018-12-02T06:45:31.053Z,1.70
2018-12-02T06:48:00.444Z,1.63
2018-12-02T06:50:29.328Z,1.67
2018-12-02T06:52:58.533Z,2.10
2018-12-02T06:55:56.907Z,2.03
2018-12-02T06:58:40.170Z,2.13
2018-12-02T07:01:28.694Z,1.83
2018-12-02T07:04:05.828Z,1.70
2018-12-02T07:06:34.679Z,1.73
2018-12-02T07:09:03.559Z,1.07
2018-12-02T07:11:32.425Z,1.37
2018-12-02T07:14:01.354Z,1.40
2018-12-02T07:16:30.211Z,1.30
2018-12-02T07:19:01.171Z,1.03
2018-12-02T07:21:32.293Z,1.80
2018-12-02T07:24:05.785Z,1.90
2018-12-02T07:26:36.594Z,1.60
2018-12-02T07:29:05.579Z,1.77
2018-12-02T07:31:35.012Z,1.70
2018-12-02T07:34:18.701Z,8.67
2018-12-02T07:37:05.355Z,6.60
2018-12-02T07:40:06.895Z,2.90
2018-12-02T07:42:36.042Z,2.40
2018-12-02T07:45:04.890Z,2.43
2018-12-02T07:47:33.788Z,2.53
2018-12-02T07:50:02.619Z,2.77
2018-12-02T07:52:31.550Z,2.83
2018-12-02T07:55:00.423Z,3.40
2018-12-02T07:57:29.274Z,3.90
2018-12-02T07:59:58.141Z,3.97
2018-12-02T08:02:26.980Z,3.60
2018-12-02T08:04:55.844Z,3.80
2018-12-02T08:07:24.678Z,4.40
2018-12-02T08:09:53.531Z,4.27
2018-12-02T08:12:22.481Z,4.00
2018-12-02T08:14:51.285Z,3.70
2018-12-02T08:17:20.156Z,4.50
2018-12-02T08:19:49.259Z,4.40
2018-12-02T08:22:18.172Z,4.60
2018-12-02T08:24:47.334Z,5.50
2018-12-02T08:27:16.172Z,4.90
2018-12-02T08:30:15.024Z,5.30
2018-12-02T08:32:43.855Z,4.90
2018-12-02T08:35:13.938Z,5.07
2018-12-02T08:37:43.728Z,4.70
2018-12-02T08:40:12.925Z,5.87
2018-12-02T08:42:41.859Z,5.30
2018-12-02T08:45:17.446Z,5.03
2018-12-02T08:47:46.957Z,5.50
2018-12-02T08:50:18.623Z,5.60
2018-12-02T08:52:48.563Z,6.20
2018-12-02T08:55:18.485Z,6.27
2018-12-02T08:57:47.863Z,6.03
2018-12-02T09:00:17.833Z,6.00
2018-12-02T09:02:49.156Z,6.27
2018-12-02T09:05:17.937Z,6.40
2018-12-02T09:10:25.543Z,8.00
2018-12-02T09:12:58.606Z,7.30
2018-12-02T09:15:27.478Z,7.63
2018-12-02T09:17:56.287Z,7.57
2018-12-02T09:20:30.420Z,7.80
2018-12-02T09:22:59.200Z,7.20
2018-12-02T09:25:28.026Z,7.23
2018-12-02T09:27:57.152Z,6.83
2018-12-02T09:30:27.297Z,6.47
2018-12-02T09:32:56.136Z,6.07
2018-12-02T09:35:25.147Z,5.90
2018-12-02T09:37:53.926Z,5.67
2018-12-02T09:40:22.723Z,5.43
2018-12-02T09:42:52.631Z,5.50
2018-12-02T09:45:24.435Z,5.73
2018-12-02T09:47:53.818Z,5.60
2018-12-02T09:50:22.658Z,5.73
2018-12-02T09:52:51.516Z,6.03
2018-12-02T09:55:36.984Z,9.00
2018-12-02T09:58:07.578Z,8.43
2018-12-02T10:00:36.473Z,6.33
2018-12-02T10:03:06.113Z,6.90
2018-12-02T10:05:34.888Z,6.40
2018-12-02T10:08:03.723Z,7.10
2018-12-02T10:10:32.551Z,7.50
2018-12-02T10:13:06.483Z,6.30
2018-12-02T10:15:35.283Z,7.10
2018-12-02T10:18:04.091Z,6.53
2018-12-02T10:20:32.883Z,6.70
2018-12-02T10:23:01.696Z,6.50
2018-12-02T10:25:30.511Z,6.90
2018-12-02T10:27:59.388Z,7.33
2018-12-02T10:30:28.156Z,6.57
2018-12-02T10:32:57.629Z,6.47
2018-12-02T10:35:26.418Z,6.47
2018-12-02T10:37:55.283Z,7.03
2018-12-02T10:40:25.096Z,6.70
2018-12-02T10:42:53.886Z,6.43
2018-12-02T10:45:24.411Z,7.13
2018-12-02T10:47:55.468Z,8.27
2018-12-02T10:50:29.231Z,7.17
2018-12-02T10:53:00.300Z,8.50
2018-12-02T10:55:38.073Z,9.50
2018-12-02T10:58:08.941Z,9.10
2018-12-02T11:00:43.054Z,9.13
2018-12-02T11:03:11.855Z,9.60
2018-12-02T11:05:40.688Z,10.03
2018-12-02T11:08:09.564Z,10.57
2018-12-02T11:10:38.394Z,11.73
2018-12-02T11:13:07.221Z,12.80
2018-12-02T11:15:36.079Z,10.60
2018-12-02T11:18:05.691Z,11.23
2018-12-02T11:20:34.500Z,11.03
2018-12-02T11:23:03.320Z,10.90
2018-12-02T11:25:32.195Z,9.97
2018-12-02T11:28:01.110Z,10.20
2018-12-02T11:30:29.900Z,9.50
2018-12-02T11:32:58.776Z,10.13
2018-12-02T11:35:27.609Z,9.03
2018-12-02T11:37:56.395Z,8.17
2018-12-02T11:40:25.196Z,8.27
2018-12-02T11:42:54.238Z,7.23
2018-12-02T11:45:23.052Z,6.13
2018-12-02T11:47:52.916Z,4.70
2018-12-02T11:50:23.760Z,5.00
2018-12-02T11:52:52.532Z,3.43
2018-12-02T11:55:22.107Z,3.40
2018-12-02T11:57:51.036Z,3.20
2018-12-02T12:00:25.626Z,2.60
2018-12-02T12:02:55.262Z,3.90
2018-12-02T12:05:24.078Z,2.67
2018-12-02T12:07:58.951Z,3.30
2018-12-02T12:10:29.295Z,2.73
2018-12-02T12:13:00.293Z,3.43
2018-12-02T12:15:36.149Z,3.47
2018-12-02T12:18:05.286Z,3.53
2018-12-02T12:20:37.800Z,4.53
2018-12-02T12:23:08.626Z,3.10
2018-12-02T12:25:37.429Z,3.87
2018-12-02T12:28:07.536Z,3.23
2018-12-02T12:30:37.776Z,3.47
2018-12-02T12:33:08.656Z,3.13
2018-12-02T12:35:40.364Z,3.67
2018-12-02T12:38:09.204Z,3.87
2018-12-02T12:40:38.653Z,3.73
2018-12-02T12:43:13.436Z,3.43
2018-12-02T12:45:42.255Z,3.83
2018-12-02T12:48:11.112Z,2.30
2018-12-02T12:50:39.975Z,2.63
2018-12-02T12:53:08.775Z,2.13
2018-12-02T12:55:37.583Z,3.00
2018-12-02T12:58:07.185Z,2.70
2018-12-02T13:00:36.015Z,3.27
2018-12-02T13:03:11.507Z,2.83
2018-12-02T13:05:44.802Z,2.20
2018-12-02T13:08:14.659Z,2.57
2018-12-02T13:10:43.534Z,2.33
2018-12-02T13:13:12.529Z,2.83
2018-12-02T13:15:41.318Z,2.30
2018-12-02T13:18:10.825Z,2.47
2018-12-02T13:20:43.196Z,2.30
2018-12-02T13:23:12.043Z,2.90
2018-12-02T13:25:40.852Z,2.50
2018-12-02T13:28:09.700Z,3.17
2018-12-02T13:30:38.495Z,4.07
2018-12-02T13:33:07.873Z,4.00
2018-12-02T13:35:37.568Z,2.60
2018-12-02T13:38:06.589Z,3.53
2018-12-02T13:40:35.842Z,3.57
2018-12-02T13:43:12.144Z,2.97
2018-12-02T13:45:40.944Z,3.47
2018-12-02T13:48:09.806Z,3.43
2018-12-02T13:50:39.013Z,2.40
2018-12-02T13:53:08.913Z,2.80
2018-12-02T13:55:37.785Z,2.70
2018-12-02T13:58:07.009Z,2.97
2018-12-02T14:00:36.921Z,3.57
2018-12-02T14:03:11.010Z,3.40
2018-12-02T14:05:43.060Z,2.63
2018-12-02T14:08:11.939Z,2.43
2018-12-02T14:10:40.740Z,2.50
2018-12-02T14:13:16.866Z,2.93
2018-12-02T14:16:01.731Z,2.50
2018-12-02T14:18:33.732Z,2.63
2018-12-02T14:21:02.549Z,2.33
2018-12-02T14:23:31.730Z,2.13
2018-12-02T14:26:02.307Z,2.40
2018-12-02T14:28:36.673Z,3.00
2018-12-02T14:31:06.068Z,2.37
2018-12-02T14:33:35.861Z,2.83
2018-12-02T14:36:03.704Z,3.20
2018-12-02T14:38:32.547Z,2.27
2018-12-02T14:41:02.958Z,2.43
2018-12-02T14:43:31.783Z,2.53
2018-12-02T14:46:00.639Z,2.50
2018-12-02T14:48:29.515Z,2.03
2018-12-02T14:50:59.194Z,2.80
2018-12-02T14:53:27.980Z,2.30
2018-12-02T14:55:57.797Z,2.23
2018-12-02T14:58:26.603Z,2.20
2018-12-02T15:00:55.399Z,2.07
2018-12-02T15:03:24.220Z,2.43
2018-12-02T15:05:53.215Z,2.47
2018-12-02T15:08:22.007Z,2.60
2018-12-02T15:10:51.021Z,2.07
2018-12-02T15:13:19.901Z,2.40
2018-12-02T15:15:51.055Z,2.27
2018-12-02T15:18:18.722Z,2.90
2018-12-02T15:20:47.556Z,2.53
2018-12-02T15:23:16.619Z,2.80
2018-12-02T15:25:45.409Z,2.30
2018-12-02T15:28:14.400Z,2.10
2018-12-02T15:30:43.315Z,3.03
2018-12-02T15:33:12.116Z,7.27
2018-12-02T15:35:41.550Z,2.50
2018-12-02T15:38:10.372Z,2.57
2018-12-02T15:40:40.609Z,2.57
2018-12-02T15:43:09.414Z,3.07
2018-12-02T15:45:38.255Z,2.27
2018-12-02T15:48:07.089Z,2.23
2018-12-02T15:50:35.867Z,2.60
2018-12-02T15:53:04.664Z,2.33
2018-12-02T15:55:34.588Z,2.47
2018-12-02T15:58:05.732Z,3.10
2018-12-02T16:00:35.882Z,2.63
2018-12-02T16:03:04.723Z,1.77
2018-12-02T16:05:33.516Z,1.80
2018-12-02T16:08:02.384Z,2.00
2018-12-02T16:10:31.640Z,2.10
2018-12-02T16:13:00.431Z,1.80
2018-12-02T16:15:32.665Z,1.70
2018-12-02T16:18:02.026Z,4.00
2018-12-02T16:20:34.544Z,2.87
2018-12-02T16:23:04.852Z,2.17
2018-12-02T16:25:35.369Z,2.00
2018-12-02T16:28:04.229Z,2.33
2018-12-02T16:30:34.760Z,2.00
2018-12-02T16:33:03.551Z,2.10
2018-12-02T16:35:32.398Z,1.90
2018-12-02T16:38:04.162Z,1.80
2018-12-02T16:40:32.970Z,2.50
2018-12-02T16:43:03.881Z,2.20
2018-12-02T16:45:32.769Z,2.03
2018-12-02T16:48:01.632Z,2.80
2018-12-02T16:50:34.727Z,2.43
2018-12-02T16:53:09.773Z,3.43
2018-12-02T16:55:45.329Z,2.70
2018-12-02T16:59:25.796Z,2.23
2018-12-02T17:01:56.324Z,3.77
2018-12-02T17:04:25.119Z,2.67
2018-12-02T17:06:53.915Z,2.30
2018-12-02T17:09:22.687Z,2.23
2018-12-02T17:11:51.480Z,2.53
2018-12-02T17:14:20.263Z,2.43
2018-12-02T17:16:49.092Z,2.50
2018-12-02T17:19:17.918Z,2.17
2018-12-02T17:21:46.814Z,2.10
2018-12-02T17:24:15.935Z,1.90
2018-12-02T17:26:44.956Z,2.53
2018-12-02T17:29:17.684Z,2.40
2018-12-02T17:31:49.455Z,1.93
2018-12-02T17:34:18.312Z,3.40
2018-12-02T17:36:47.182Z,2.80
2018-12-02T17:39:20.463Z,2.23
2018-12-02T17:41:53.241Z,2.67
2018-12-02T17:44:22.051Z,2.67
2018-12-02T17:46:51.051Z,2.83
2018-12-02T17:49:19.827Z,3.17
2018-12-02T17:51:48.643Z,2.30
2018-12-02T17:54:17.478Z,2.70
2018-12-02T17:56:46.340Z,2.60
2018-12-02T17:59:15.180Z,3.07
2018-12-02T18:01:44.187Z,2.47
2018-12-02T18:04:13.010Z,2.77
2018-12-02T18:06:41.840Z,3.03
2018-12-02T18:09:12.116Z,2.80
2018-12-02T18:11:40.930Z,7.73
2018-12-02T18:14:09.794Z,12.47
2018-12-02T18:16:38.620Z,19.40
2018-12-02T18:19:07.491Z,19.57
2018-12-02T18:21:36.283Z,14.50
2018-12-02T18:24:05.476Z,3.53
2018-12-02T18:26:34.298Z,3.63
2018-12-02T18:29:03.844Z,3.03
2018-12-02T18:31:32.664Z,2.90
2018-12-02T18:34:01.470Z,2.60
2018-12-02T18:36:32.292Z,2.87
2018-12-02T18:39:01.096Z,3.23
2018-12-02T18:41:34.978Z,3.10
2018-12-02T18:44:03.865Z,2.97
2018-12-02T18:46:32.730Z,3.43
2018-12-02T18:49:01.500Z,3.10
2018-12-02T18:51:30.311Z,3.10
2018-12-02T18:53:59.166Z,3.43
2018-12-02T18:56:28.079Z,3.13
2018-12-02T18:58:56.876Z,3.77
2018-12-02T19:01:25.767Z,4.07
2018-12-02T19:03:54.563Z,3.37
2018-12-02T19:06:28.115Z,4.00
2018-12-02T19:08:52.208Z,4.10
2018-12-02T19:11:21.640Z,4.07
2018-12-02T19:13:49.894Z,3.87
2018-12-02T19:16:18.695Z,3.80
2018-12-02T19:18:48.842Z,4.07
2018-12-02T19:21:22.757Z,3.57
2018-12-02T19:23:51.921Z,3.60
2018-12-02T19:26:20.719Z,6.87
2018-12-02T19:28:49.541Z,8.23
2018-12-02T19:31:18.367Z,10.50
2018-12-02T19:33:47.230Z,7.53
2018-12-02T19:36:19.585Z,5.50
2018-12-02T19:38:48.407Z,3.97
2018-12-02T19:41:17.207Z,3.60
2018-12-02T19:43:46.013Z,4.00
2018-12-02T19:46:14.828Z,3.57
2018-12-02T19:48:44.340Z,4.17
2018-12-02T19:51:13.135Z,3.57
2018-12-02T19:53:41.921Z,4.37
2018-12-02T19:56:10.728Z,5.20
2018-12-02T19:58:39.773Z,5.07
2018-12-02T20:01:08.559Z,5.50
2018-12-02T20:03:37.368Z,4.90
2018-12-02T20:06:06.326Z,5.00
2018-12-02T20:08:35.137Z,5.03
2018-12-02T20:11:03.974Z,4.53
2018-12-02T20:13:32.802Z,4.97
2018-12-02T20:16:07.023Z,5.47
2018-12-02T20:18:35.836Z,5.10
2018-12-02T20:21:04.841Z,4.97
2018-12-02T20:23:39.019Z,5.10
2018-12-02T20:26:07.875Z,4.90
2018-12-02T20:28:41.426Z,5.60
2018-12-02T20:31:27.956Z,6.00
2018-12-02T20:33:56.793Z,4.70
2018-12-02T20:36:25.744Z,4.90
2018-12-02T20:38:54.663Z,5.30
2018-12-02T20:41:29.791Z,5.57
2018-12-02T20:43:58.619Z,4.93
2018-12-02T20:46:27.411Z,5.40
2018-12-02T20:48:56.191Z,6.03
2018-12-02T20:51:25.076Z,5.07
2018-12-02T20:53:53.930Z,6.80
2018-12-02T20:56:22.738Z,5.87
2018-12-02T20:58:51.592Z,7.40
2018-12-02T21:01:20.443Z,6.40
2018-12-02T21:03:49.676Z,5.83
2018-12-02T21:06:19.980Z,7.83
2018-12-02T21:08:48.826Z,6.83
2018-12-02T21:11:17.667Z,6.97
2018-12-02T21:13:46.543Z,7.30
2018-12-02T21:16:15.406Z,7.47
2018-12-02T21:18:44.190Z,8.00
2018-12-02T21:21:12.979Z,8.27
2018-12-02T21:23:41.789Z,8.83
2018-12-02T21:26:11.314Z,9.40
2018-12-02T21:28:41.043Z,10.00
2018-12-02T21:31:09.991Z,10.57
2018-12-02T21:33:38.789Z,10.27
2018-12-02T21:36:07.696Z,12.07
2018-12-02T21:38:36.776Z,12.13
2018-12-02T21:41:05.768Z,12.67
2018-12-02T21:43:34.611Z,13.27
2018-12-02T21:46:03.431Z,12.77
2018-12-02T21:48:32.385Z,13.03
2018-12-02T21:51:01.282Z,13.10
2018-12-02T21:53:30.091Z,12.07
2018-12-02T21:55:58.895Z,12.00
2018-12-02T21:58:27.699Z,13.17
2018-12-02T22:01:01.769Z,13.30
2018-12-02T22:03:30.615Z,13.60
2018-12-02T22:05:59.413Z,13.53
2018-12-02T22:08:28.223Z,14.13
2018-12-02T22:10:57.083Z,14.23
2018-12-02T22:13:25.878Z,14.03
2018-12-02T22:15:54.707Z,13.53
2018-12-02T22:18:23.512Z,13.37
2018-12-02T22:20:52.316Z,15.87
2018-12-02T22:23:21.122Z,15.50
2018-12-02T22:25:49.971Z,16.63
2018-12-02T22:28:18.862Z,17.17
2018-12-02T22:30:47.755Z,18.50
2018-12-02T22:33:16.528Z,18.87
2018-12-02T22:35:45.344Z,18.83
2018-12-02T22:38:15.225Z,19.07
2018-12-02T22:40:44.084Z,18.83
2018-12-02T22:43:12.892Z,21.83
2018-12-02T22:45:41.682Z,19.23
2018-12-02T22:48:10.508Z,19.30
2018-12-02T22:50:39.298Z,18.30
2018-12-02T22:53:08.169Z,19.13
2018-12-02T22:55:36.974Z,19.10
2018-12-02T22:58:06.650Z,18.53
2018-12-02T23:00:40.884Z,19.17
2018-12-02T23:03:11.949Z,17.50
2018-12-02T23:05:41.807Z,18.90
2018-12-02T23:08:10.615Z,17.47
2018-12-02T23:10:39.676Z,19.70
2018-12-02T23:13:09.464Z,17.90
2018-12-02T23:15:39.212Z,18.87
2018-12-02T23:18:08.661Z,17.03
2018-12-02T23:20:37.498Z,17.30
2018-12-02T23:23:06.416Z,19.53
2018-12-02T23:25:35.237Z,18.37
2018-12-02T23:28:04.060Z,17.97
2018-12-02T23:30:32.865Z,16.70
2018-12-02T23:33:01.678Z,19.07
2018-12-02T23:35:30.466Z,17.57
2018-12-02T23:37:59.260Z,17.63
2018-12-02T23:40:28.055Z,17.40
2018-12-02T23:42:56.855Z,17.03
2018-12-02T23:45:25.630Z,17.00
2018-12-02T23:47:54.435Z,17.20
2018-12-02T23:50:24.093Z,17.17
2018-12-02T23:52:53.132Z,18.77
2018-12-02T23:55:22.422Z,17.83
2018-12-02T23:57:51.234Z,17.33
